sensor_id;sensor_type;location;lat;lon;timestamp;pressure;altitude;pressure_sealevel;temperature;humidity
75794;BME280;64418;47.536;19.074;2023-10-08T00:02:22;100397.59;;;19.75;38.53
75794;BME280;64418;47.536;19.074;2023-10-08T00:04:50;100391.19;;;19.64;38.91
75794;BME280;64418;47.536;19.074;2023-10-08T00:07:15;100388.12;;;19.56;39.19
75794;BME280;64418;47.536;19.074;2023-10-08T00:09:41;100386.13;;;19.46;39.35
75794;BME280;64418;47.536;19.074;2023-10-08T00:12:07;100378.22;;;19.55;38.85
75794;BME280;64418;47.536;19.074;2023-10-08T00:14:33;100380.47;;;19.63;38.62
75794;BME280;64418;47.536;19.074;2023-10-08T00:17:00;100372.22;;;19.63;38.72
75794;BME280;64418;47.536;19.074;2023-10-08T00:19:26;100372.25;;;19.68;38.53
75794;BME280;64418;47.536;19.074;2023-10-08T00:21:53;100352.94;;;19.58;38.75
75794;BME280;64418;47.536;19.074;2023-10-08T00:24:19;100357.81;;;19.46;39.04
75794;BME280;64418;47.536;19.074;2023-10-08T00:26:46;100360.66;;;19.61;38.71
75794;BME280;64418;47.536;19.074;2023-10-08T00:29:12;100362.37;;;19.72;38.44
75794;BME280;64418;47.536;19.074;2023-10-08T00:31:38;100366.03;;;19.83;38.07
75794;BME280;64418;47.536;19.074;2023-10-08T00:34:05;100364.56;;;19.70;38.18
75794;BME280;64418;47.536;19.074;2023-10-08T00:36:32;100371.72;;;19.71;38.27
75794;BME280;64418;47.536;19.074;2023-10-08T00:38:59;100368.94;;;19.66;38.33
75794;BME280;64418;47.536;19.074;2023-10-08T00:41:25;100359.63;;;19.67;38.39
75794;BME280;64418;47.536;19.074;2023-10-08T00:43:52;100352.72;;;19.64;38.44
75794;BME280;64418;47.536;19.074;2023-10-08T00:46:18;100356.28;;;19.65;38.43
75794;BME280;64418;47.536;19.074;2023-10-08T00:48:46;100346.63;;;19.52;38.79
75794;BME280;64418;47.536;19.074;2023-10-08T00:51:13;100338.37;;;19.57;38.67
75794;BME280;64418;47.536;19.074;2023-10-08T00:53:40;100341.13;;;19.52;38.78
75794;BME280;64418;47.536;19.074;2023-10-08T00:56:07;100349.03;;;19.44;38.99
75794;BME280;64418;47.536;19.074;2023-10-08T00:58:34;100334.72;;;19.42;39.05
75794;BME280;64418;47.536;19.074;2023-10-08T01:01:00;100329.63;;;19.23;39.34
75794;BME280;64418;47.536;19.074;2023-10-08T01:03:26;100342.75;;;19.16;39.59
75794;BME280;64418;47.536;19.074;2023-10-08T01:05:52;100333.13;;;19.14;39.72
75794;BME280;64418;47.536;19.074;2023-10-08T01:08:18;100336.13;;;19.12;39.72
75794;BME280;64418;47.536;19.074;2023-10-08T01:10:44;100347.59;;;19.04;39.87
75794;BME280;64418;47.536;19.074;2023-10-08T01:13:12;100340.91;;;18.90;40.23
75794;BME280;64418;47.536;19.074;2023-10-08T01:15:38;100331.22;;;18.83;40.63
75794;BME280;64418;47.536;19.074;2023-10-08T01:18:05;100319.72;;;18.86;40.45
75794;BME280;64418;47.536;19.074;2023-10-08T01:20:31;100308.75;;;18.86;40.54
75794;BME280;64418;47.536;19.074;2023-10-08T01:22:59;100312.84;;;18.83;40.72
75794;BME280;64418;47.536;19.074;2023-10-08T01:25:24;100314.47;;;18.79;40.82
75794;BME280;64418;47.536;19.074;2023-10-08T01:27:55;100307.22;;;18.68;41.18
75794;BME280;64418;47.536;19.074;2023-10-08T01:30:21;100300.59;;;18.64;41.10
75794;BME280;64418;47.536;19.074;2023-10-08T01:32:47;100290.22;;;18.71;41.40
75794;BME280;64418;47.536;19.074;2023-10-08T01:35:13;100286.72;;;18.75;41.24
75794;BME280;64418;47.536;19.074;2023-10-08T01:37:40;100282.66;;;18.83;41.24
75794;BME280;64418;47.536;19.074;2023-10-08T01:40:09;100279.41;;;18.91;41.25
75794;BME280;64418;47.536;19.074;2023-10-08T01:42:35;100290.69;;;18.95;41.19
75794;BME280;64418;47.536;19.074;2023-10-08T01:45:01;100285.44;;;18.88;41.29
75794;BME280;64418;47.536;19.074;2023-10-08T01:47:27;100274.66;;;18.82;41.44
75794;BME280;64418;47.536;19.074;2023-10-08T01:49:53;100269.41;;;18.75;41.71
75794;BME280;64418;47.536;19.074;2023-10-08T01:52:19;100263.84;;;18.65;42.07
75794;BME280;64418;47.536;19.074;2023-10-08T01:54:45;100265.94;;;18.53;42.46
75794;BME280;64418;47.536;19.074;2023-10-08T01:57:13;100255.81;;;18.58;42.50
75794;BME280;64418;47.536;19.074;2023-10-08T01:59:39;100255.72;;;18.48;42.80
75794;BME280;64418;47.536;19.074;2023-10-08T02:02:05;100245.97;;;18.36;43.17
75794;BME280;64418;47.536;19.074;2023-10-08T02:04:32;100255.94;;;18.42;43.49
75794;BME280;64418;47.536;19.074;2023-10-08T02:06:58;100261.66;;;18.67;43.22
75794;BME280;64418;47.536;19.074;2023-10-08T02:09:24;100256.47;;;18.70;43.10
75794;BME280;64418;47.536;19.074;2023-10-08T02:11:50;100249.53;;;18.63;43.75
75794;BME280;64418;47.536;19.074;2023-10-08T02:14:18;100246.56;;;18.69;43.68
75794;BME280;64418;47.536;19.074;2023-10-08T02:16:44;100248.59;;;18.79;43.46
75794;BME280;64418;47.536;19.074;2023-10-08T02:19:10;100241.53;;;18.88;43.67
75794;BME280;64418;47.536;19.074;2023-10-08T02:21:36;100244.03;;;19.00;43.55
75794;BME280;64418;47.536;19.074;2023-10-08T02:24:03;100245.13;;;18.94;43.62
75794;BME280;64418;47.536;19.074;2023-10-08T02:26:29;100242.72;;;19.07;43.54
75794;BME280;64418;47.536;19.074;2023-10-08T02:28:55;100240.06;;;19.17;43.43
75794;BME280;64418;47.536;19.074;2023-10-08T02:31:22;100230.78;;;19.29;43.32
75794;BME280;64418;47.536;19.074;2023-10-08T02:33:48;100227.16;;;19.23;43.58
75794;BME280;64418;47.536;19.074;2023-10-08T02:36:15;100230.19;;;19.21;43.62
75794;BME280;64418;47.536;19.074;2023-10-08T02:38:40;100220.91;;;19.33;43.47
75794;BME280;64418;47.536;19.074;2023-10-08T02:41:06;100212.38;;;19.34;43.32
75794;BME280;64418;47.536;19.074;2023-10-08T02:43:32;100206.13;;;19.44;43.16
75794;BME280;64418;47.536;19.074;2023-10-08T02:45:58;100219.66;;;19.55;42.84
75794;BME280;64418;47.536;19.074;2023-10-08T02:48:26;100216.03;;;19.50;43.06
75794;BME280;64418;47.536;19.074;2023-10-08T02:50:52;100220.97;;;19.43;43.33
75794;BME280;64418;47.536;19.074;2023-10-08T02:53:18;100226.47;;;19.43;43.38
75794;BME280;64418;47.536;19.074;2023-10-08T02:55:44;100224.88;;;19.52;43.32
75794;BME280;64418;47.536;19.074;2023-10-08T02:58:10;100229.97;;;19.33;43.76
75794;BME280;64418;47.536;19.074;2023-10-08T03:00:36;100191.38;;;19.03;44.10
75794;BME280;64418;47.536;19.074;2023-10-08T03:03:03;100212.94;;;19.41;43.82
75794;BME280;64418;47.536;19.074;2023-10-08T03:05:31;100203.41;;;19.54;43.69
75794;BME280;64418;47.536;19.074;2023-10-08T03:07:57;100197.66;;;19.60;43.54
75794;BME280;64418;47.536;19.074;2023-10-08T03:10:23;100196.25;;;19.53;43.67
75794;BME280;64418;47.536;19.074;2023-10-08T03:12:49;100190.28;;;19.66;43.45
75794;BME280;64418;47.536;19.074;2023-10-08T03:15:15;100190.25;;;19.61;43.48
75794;BME280;64418;47.536;19.074;2023-10-08T03:17:42;100207.84;;;19.60;43.45
75794;BME280;64418;47.536;19.074;2023-10-08T03:20:08;100204.50;;;19.53;43.70
75794;BME280;64418;47.536;19.074;2023-10-08T03:22:35;100213.87;;;19.52;43.60
75794;BME280;64418;47.536;19.074;2023-10-08T03:25:01;100197.84;;;19.39;43.97
75794;BME280;64418;47.536;19.074;2023-10-08T03:27:27;100201.88;;;19.21;44.36
75794;BME280;64418;47.536;19.074;2023-10-08T03:29:53;100206.50;;;19.10;44.56
75794;BME280;64418;47.536;19.074;2023-10-08T03:32:19;100195.84;;;19.24;44.30
75794;BME280;64418;47.536;19.074;2023-10-08T03:34:45;100197.75;;;19.18;44.46
75794;BME280;64418;47.536;19.074;2023-10-08T03:37:12;100174.72;;;19.24;44.07
75794;BME280;64418;47.536;19.074;2023-10-08T03:39:40;100182.97;;;19.30;43.82
75794;BME280;64418;47.536;19.074;2023-10-08T03:42:06;100178.28;;;19.30;43.83
75794;BME280;64418;47.536;19.074;2023-10-08T03:44:32;100171.44;;;19.33;43.41
75794;BME280;64418;47.536;19.074;2023-10-08T03:46:58;100168.69;;;19.38;43.35
75794;BME280;64418;47.536;19.074;2023-10-08T03:49:24;100162.06;;;19.23;43.68
75794;BME280;64418;47.536;19.074;2023-10-08T03:51:51;100151.81;;;19.04;44.16
75794;BME280;64418;47.536;19.074;2023-10-08T03:54:17;100145.41;;;18.83;44.59
75794;BME280;64418;47.536;19.074;2023-10-08T03:56:46;100139.66;;;18.90;44.46
75794;BME280;64418;47.536;19.074;2023-10-08T03:59:12;100142.19;;;19.01;44.22
75794;BME280;64418;47.536;19.074;2023-10-08T04:01:39;100165.75;;;18.87;44.54
75794;BME280;64418;47.536;19.074;2023-10-08T04:04:05;100164.12;;;18.91;44.58
75794;BME280;64418;47.536;19.074;2023-10-08T04:06:31;100158.84;;;18.85;44.87
75794;BME280;64418;47.536;19.074;2023-10-08T04:08:59;100158.00;;;18.79;44.98
75794;BME280;64418;47.536;19.074;2023-10-08T04:11:25;100153.16;;;18.54;45.38
75794;BME280;64418;47.536;19.074;2023-10-08T04:13:53;100143.66;;;18.67;45.76
75794;BME280;64418;47.536;19.074;2023-10-08T04:16:18;100145.34;;;18.73;45.72
75794;BME280;64418;47.536;19.074;2023-10-08T04:18:45;100134.81;;;18.60;45.87
75794;BME280;64418;47.536;19.074;2023-10-08T04:21:11;100151.53;;;18.53;46.15
75794;BME280;64418;47.536;19.074;2023-10-08T04:23:37;100153.38;;;18.48;46.73
75794;BME280;64418;47.536;19.074;2023-10-08T04:26:03;100137.12;;;18.41;47.06
75794;BME280;64418;47.536;19.074;2023-10-08T04:28:29;100133.62;;;18.46;47.29
75794;BME280;64418;47.536;19.074;2023-10-08T04:30:56;100123.97;;;18.43;47.51
75794;BME280;64418;47.536;19.074;2023-10-08T04:33:22;100135.56;;;18.50;47.51
75794;BME280;64418;47.536;19.074;2023-10-08T04:35:48;100135.37;;;18.57;47.37
75794;BME280;64418;47.536;19.074;2023-10-08T04:38:14;100128.78;;;18.58;47.60
75794;BME280;64418;47.536;19.074;2023-10-08T04:40:41;100135.94;;;18.64;47.62
75794;BME280;64418;47.536;19.074;2023-10-08T04:43:06;100125.09;;;18.84;47.03
75794;BME280;64418;47.536;19.074;2023-10-08T04:45:32;100127.31;;;18.92;46.83
75794;BME280;64418;47.536;19.074;2023-10-08T04:48:00;100113.34;;;19.04;46.33
75794;BME280;64418;47.536;19.074;2023-10-08T04:50:26;100125.13;;;18.94;46.90
75794;BME280;64418;47.536;19.074;2023-10-08T04:52:52;100133.41;;;19.04;46.43
75794;BME280;64418;47.536;19.074;2023-10-08T04:55:18;100141.66;;;19.04;46.40
75794;BME280;64418;47.536;19.074;2023-10-08T04:57:43;100136.97;;;19.00;46.54
75794;BME280;64418;47.536;19.074;2023-10-08T05:00:11;100138.94;;;19.09;46.31
75794;BME280;64418;47.536;19.074;2023-10-08T05:02:37;100135.72;;;19.28;45.74
75794;BME280;64418;47.536;19.074;2023-10-08T05:05:07;100112.78;;;19.89;44.38
75794;BME280;64418;47.536;19.074;2023-10-08T05:07:33;100121.87;;;19.90;44.18
75794;BME280;64418;47.536;19.074;2023-10-08T05:10:00;100139.19;;;20.20;43.76
75794;BME280;64418;47.536;19.074;2023-10-08T05:12:26;100149.09;;;20.27;43.74
75794;BME280;64418;47.536;19.074;2023-10-08T05:14:52;100149.69;;;20.39;43.68
75794;BME280;64418;47.536;19.074;2023-10-08T05:17:18;100127.94;;;20.42;43.65
75794;BME280;64418;47.536;19.074;2023-10-08T05:19:44;100135.09;;;20.38;43.71
75794;BME280;64418;47.536;19.074;2023-10-08T05:22:13;100175.00;;;20.46;43.44
75794;BME280;64418;47.536;19.074;2023-10-08T05:24:40;100160.41;;;20.40;43.43
75794;BME280;64418;47.536;19.074;2023-10-08T05:27:07;100164.53;;;20.53;43.28
75794;BME280;64418;47.536;19.074;2023-10-08T05:29:33;100182.69;;;20.44;43.48
75794;BME280;64418;47.536;19.074;2023-10-08T05:32:00;100172.22;;;20.41;43.44
75794;BME280;64418;47.536;19.074;2023-10-08T05:34:26;100182.13;;;20.37;43.56
75794;BME280;64418;47.536;19.074;2023-10-08T05:36:53;100172.78;;;20.38;43.50
75794;BME280;64418;47.536;19.074;2023-10-08T05:39:20;100179.09;;;20.28;43.73
75794;BME280;64418;47.536;19.074;2023-10-08T05:41:47;100172.19;;;20.20;43.82
75794;BME280;64418;47.536;19.074;2023-10-08T05:44:13;100185.44;;;20.29;43.88
75794;BME280;64418;47.536;19.074;2023-10-08T05:46:39;100183.78;;;20.28;43.96
75794;BME280;64418;47.536;19.074;2023-10-08T05:49:06;100189.59;;;20.31;43.89
75794;BME280;64418;47.536;19.074;2023-10-08T05:51:32;100189.84;;;20.35;43.91
75794;BME280;64418;47.536;19.074;2023-10-08T05:53:58;100185.47;;;20.39;44.01
75794;BME280;64418;47.536;19.074;2023-10-08T05:56:26;100201.41;;;20.37;44.03
75794;BME280;64418;47.536;19.074;2023-10-08T05:58:51;100193.97;;;20.32;44.36
75794;BME280;64418;47.536;19.074;2023-10-08T06:01:20;100201.94;;;20.29;44.67
75794;BME280;64418;47.536;19.074;2023-10-08T06:03:46;100199.72;;;20.26;44.78
75794;BME280;64418;47.536;19.074;2023-10-08T06:06:12;100198.06;;;20.25;45.16
75794;BME280;64418;47.536;19.074;2023-10-08T06:08:37;100205.78;;;20.23;45.25
75794;BME280;64418;47.536;19.074;2023-10-08T06:11:03;100207.97;;;20.26;45.43
75794;BME280;64418;47.536;19.074;2023-10-08T06:13:31;100211.81;;;20.25;45.67
75794;BME280;64418;47.536;19.074;2023-10-08T06:15:57;100207.41;;;20.18;45.86
75794;BME280;64418;47.536;19.074;2023-10-08T06:18:26;100213.78;;;20.24;45.74
75794;BME280;64418;47.536;19.074;2023-10-08T06:20:52;100210.19;;;20.24;45.82
75794;BME280;64418;47.536;19.074;2023-10-08T06:23:18;100200.81;;;20.25;46.08
75794;BME280;64418;47.536;19.074;2023-10-08T06:25:48;100216.53;;;20.24;46.31
75794;BME280;64418;47.536;19.074;2023-10-08T06:28:16;100223.37;;;20.22;46.48
75794;BME280;64418;47.536;19.074;2023-10-08T06:30:44;100228.88;;;20.16;46.95
75794;BME280;64418;47.536;19.074;2023-10-08T06:33:10;100229.44;;;20.18;46.90
75794;BME280;64418;47.536;19.074;2023-10-08T06:35:36;100240.44;;;20.18;47.07
75794;BME280;64418;47.536;19.074;2023-10-08T06:38:02;100235.75;;;20.19;47.32
75794;BME280;64418;47.536;19.074;2023-10-08T06:40:28;100232.72;;;20.20;47.23
75794;BME280;64418;47.536;19.074;2023-10-08T06:42:54;100247.31;;;20.21;47.23
75794;BME280;64418;47.536;19.074;2023-10-08T06:45:19;100234.94;;;20.18;47.24
75794;BME280;64418;47.536;19.074;2023-10-08T06:47:46;100237.94;;;20.17;47.14
75794;BME280;64418;47.536;19.074;2023-10-08T06:50:12;100239.59;;;20.18;47.17
75794;BME280;64418;47.536;19.074;2023-10-08T06:52:38;100243.47;;;20.12;47.36
75794;BME280;64418;47.536;19.074;2023-10-08T06:55:05;100242.06;;;20.09;47.47
75794;BME280;64418;47.536;19.074;2023-10-08T06:57:31;100231.59;;;20.06;47.54
75794;BME280;64418;47.536;19.074;2023-10-08T06:59:57;100231.91;;;20.05;47.73
75794;BME280;64418;47.536;19.074;2023-10-08T07:02:23;100232.97;;;19.99;48.04
75794;BME280;64418;47.536;19.074;2023-10-08T07:04:51;100222.53;;;20.01;48.06
75794;BME280;64418;47.536;19.074;2023-10-08T07:07:17;100218.41;;;20.08;48.04
75794;BME280;64418;47.536;19.074;2023-10-08T07:09:43;100228.88;;;20.22;47.79
75794;BME280;64418;47.536;19.074;2023-10-08T07:12:09;100225.91;;;20.33;47.56
75794;BME280;64418;47.536;19.074;2023-10-08T07:14:35;100233.63;;;20.31;47.47
75794;BME280;64418;47.536;19.074;2023-10-08T07:17:01;100228.94;;;20.62;47.03
75794;BME280;64418;47.536;19.074;2023-10-08T07:19:27;100233.03;;;20.85;46.58
75794;BME280;64418;47.536;19.074;2023-10-08T07:21:55;100216.81;;;20.68;46.66
75794;BME280;64418;47.536;19.074;2023-10-08T07:24:21;100217.63;;;20.79;46.53
75794;BME280;64418;47.536;19.074;2023-10-08T07:26:47;100220.31;;;21.04;45.95
75794;BME280;64418;47.536;19.074;2023-10-08T07:29:14;100227.25;;;20.81;46.43
75794;BME280;64418;47.536;19.074;2023-10-08T07:31:40;100236.03;;;21.08;46.04
75794;BME280;64418;47.536;19.074;2023-10-08T07:34:05;100232.75;;;20.86;46.67
75794;BME280;64418;47.536;19.074;2023-10-08T07:36:32;100202.22;;;20.73;47.03
75794;BME280;64418;47.536;19.074;2023-10-08T07:38:59;100225.59;;;20.95;46.85
75794;BME280;64418;47.536;19.074;2023-10-08T07:41:25;100207.94;;;20.96;47.23
75794;BME280;64418;47.536;19.074;2023-10-08T07:43:50;100218.97;;;21.11;47.12
75794;BME280;64418;47.536;19.074;2023-10-08T07:46:16;100227.75;;;21.24;46.94
75794;BME280;64418;47.536;19.074;2023-10-08T07:48:42;100223.87;;;21.30;47.01
75794;BME280;64418;47.536;19.074;2023-10-08T07:51:08;100222.75;;;21.31;47.16
75794;BME280;64418;47.536;19.074;2023-10-08T07:53:34;100222.69;;;21.46;46.85
75794;BME280;64418;47.536;19.074;2023-10-08T07:56:01;100213.00;;;21.64;46.82
75794;BME280;64418;47.536;19.074;2023-10-08T07:58:28;100216.34;;;21.55;47.27
75794;BME280;64418;47.536;19.074;2023-10-08T08:00:53;100210.59;;;21.42;47.53
75794;BME280;64418;47.536;19.074;2023-10-08T08:03:21;100217.19;;;21.51;47.51
75794;BME280;64418;47.536;19.074;2023-10-08T08:05:47;100218.25;;;21.55;47.67
75794;BME280;64418;47.536;19.074;2023-10-08T08:08:14;100233.56;;;21.86;47.11
75794;BME280;64418;47.536;19.074;2023-10-08T08:10:40;100229.00;;;22.16;46.50
75794;BME280;64418;47.536;19.074;2023-10-08T08:13:07;100216.19;;;21.86;47.05
75794;BME280;64418;47.536;19.074;2023-10-08T08:15:33;100198.16;;;22.03;46.92
75794;BME280;64418;47.536;19.074;2023-10-08T08:17:59;100235.59;;;22.15;46.54
75794;BME280;64418;47.536;19.074;2023-10-08T08:20:24;100223.06;;;21.83;47.57
75794;BME280;64418;47.536;19.074;2023-10-08T08:22:50;100232.56;;;22.16;46.70
75794;BME280;64418;47.536;19.074;2023-10-08T08:25:16;100224.13;;;22.36;46.18
75794;BME280;64418;47.536;19.074;2023-10-08T08:27:42;100228.75;;;22.07;46.49
75794;BME280;64418;47.536;19.074;2023-10-08T08:30:11;100254.66;;;22.16;46.73
75794;BME280;64418;47.536;19.074;2023-10-08T08:32:36;100239.53;;;22.03;46.77
75794;BME280;64418;47.536;19.074;2023-10-08T08:35:02;100244.88;;;22.34;46.29
75794;BME280;64418;47.536;19.074;2023-10-08T08:37:28;100258.47;;;22.59;45.79
75794;BME280;64418;47.536;19.074;2023-10-08T08:39:57;100237.34;;;23.31;44.43
75794;BME280;64418;47.536;19.074;2023-10-08T08:42:23;100246.87;;;23.20;44.45
75794;BME280;64418;47.536;19.074;2023-10-08T08:44:50;100250.47;;;23.49;44.24
75794;BME280;64418;47.536;19.074;2023-10-08T08:47:20;100246.28;;;23.23;44.77
75794;BME280;64418;47.536;19.074;2023-10-08T08:49:47;100242.88;;;23.31;44.56
75794;BME280;64418;47.536;19.074;2023-10-08T08:52:14;100245.56;;;23.83;43.55
75794;BME280;64418;47.536;19.074;2023-10-08T08:54:41;100251.31;;;23.68;44.01
75794;BME280;64418;47.536;19.074;2023-10-08T08:57:10;100290.09;;;23.11;45.43
75794;BME280;64418;47.536;19.074;2023-10-08T08:59:40;100271.31;;;22.40;47.19
75794;BME280;64418;47.536;19.074;2023-10-08T09:02:11;100270.41;;;22.11;48.16
75794;BME280;64418;47.536;19.074;2023-10-08T09:04:39;100276.50;;;22.07;48.56
75794;BME280;64418;47.536;19.074;2023-10-08T09:07:07;100274.03;;;22.45;47.67
75794;BME280;64418;47.536;19.074;2023-10-08T09:09:37;100275.94;;;22.49;47.49
75794;BME280;64418;47.536;19.074;2023-10-08T09:12:03;100283.69;;;22.47;47.89
75794;BME280;64418;47.536;19.074;2023-10-08T09:14:29;100292.66;;;22.29;48.41
75794;BME280;64418;47.536;19.074;2023-10-08T09:16:57;100296.72;;;21.98;49.26
75794;BME280;64418;47.536;19.074;2023-10-08T09:19:24;100300.28;;;21.88;50.00
75794;BME280;64418;47.536;19.074;2023-10-08T09:22:02;100295.94;;;21.77;50.32
75794;BME280;64418;47.536;19.074;2023-10-08T09:24:28;100308.69;;;21.53;51.22
75794;BME280;64418;47.536;19.074;2023-10-08T09:26:56;100306.53;;;21.35;51.78
75794;BME280;64418;47.536;19.074;2023-10-08T09:29:26;100321.41;;;21.39;51.97
75794;BME280;64418;47.536;19.074;2023-10-08T09:31:53;100331.34;;;21.35;52.29
75794;BME280;64418;47.536;19.074;2023-10-08T09:34:20;100337.97;;;21.34;52.42
75794;BME280;64418;47.536;19.074;2023-10-08T09:36:46;100343.50;;;21.29;52.83
75794;BME280;64418;47.536;19.074;2023-10-08T09:39:15;100334.69;;;21.11;53.30
75794;BME280;64418;47.536;19.074;2023-10-08T09:41:42;100343.75;;;21.07;53.65
75794;BME280;64418;47.536;19.074;2023-10-08T09:44:08;100352.84;;;20.87;54.35
75794;BME280;64418;47.536;19.074;2023-10-08T09:46:36;100350.06;;;20.92;54.36
75794;BME280;64418;47.536;19.074;2023-10-08T09:49:03;100344.59;;;21.02;54.30
75794;BME280;64418;47.536;19.074;2023-10-08T09:51:31;100360.81;;;21.04;54.36
75794;BME280;64418;47.536;19.074;2023-10-08T09:54:05;100360.56;;;21.16;54.24
75794;BME280;64418;47.536;19.074;2023-10-08T09:56:37;100340.16;;;20.76;54.41
75794;BME280;64418;47.536;19.074;2023-10-08T09:59:04;100369.66;;;20.96;54.43
75794;BME280;64418;47.536;19.074;2023-10-08T10:01:32;100362.47;;;20.90;54.86
75794;BME280;64418;47.536;19.074;2023-10-08T10:03:59;100401.31;;;20.73;55.44
75794;BME280;64418;47.536;19.074;2023-10-08T10:06:26;100409.53;;;20.63;56.13
75794;BME280;64418;47.536;19.074;2023-10-08T10:08:56;100410.03;;;20.55;56.63
75794;BME280;64418;47.536;19.074;2023-10-08T10:11:26;100424.88;;;20.44;56.97
75794;BME280;64418;47.536;19.074;2023-10-08T10:14:03;100419.09;;;20.40;57.33
75794;BME280;64418;47.536;19.074;2023-10-08T10:16:29;100427.00;;;20.27;57.78
75794;BME280;64418;47.536;19.074;2023-10-08T10:18:56;100422.28;;;20.22;58.14
75794;BME280;64418;47.536;19.074;2023-10-08T10:21:30;100408.22;;;20.13;58.38
75794;BME280;64418;47.536;19.074;2023-10-08T10:23:57;100412.31;;;20.01;58.80
75794;BME280;64418;47.536;19.074;2023-10-08T10:26:25;100421.59;;;19.95;59.28
75794;BME280;64418;47.536;19.074;2023-10-08T10:29:23;100426.28;;;19.94;59.35
75794;BME280;64418;47.536;19.074;2023-10-08T10:31:51;100427.84;;;19.80;59.59
75794;BME280;64418;47.536;19.074;2023-10-08T10:34:21;100436.63;;;19.77;59.74
75794;BME280;64418;47.536;19.074;2023-10-08T10:36:51;100419.34;;;19.82;59.54
75794;BME280;64418;47.536;19.074;2023-10-08T10:39:18;100411.84;;;20.19;58.28
75794;BME280;64418;47.536;19.074;2023-10-08T10:41:45;100410.56;;;20.32;56.83
75794;BME280;64418;47.536;19.074;2023-10-08T10:44:14;100432.03;;;20.35;56.00
75794;BME280;64418;47.536;19.074;2023-10-08T10:46:43;100415.38;;;20.14;55.49
75794;BME280;64418;47.536;19.074;2023-10-08T10:49:10;100438.25;;;20.20;54.87
75794;BME280;64418;47.536;19.074;2023-10-08T10:51:35;100438.06;;;20.37;54.36
75794;BME280;64418;47.536;19.074;2023-10-08T10:54:03;100438.44;;;20.03;54.30
75794;BME280;64418;47.536;19.074;2023-10-08T10:56:29;100445.69;;;20.19;54.04
75794;BME280;64418;47.536;19.074;2023-10-08T10:58:59;100455.72;;;19.99;53.59
75794;BME280;64418;47.536;19.074;2023-10-08T11:01:26;100476.84;;;19.88;53.98
75794;BME280;64418;47.536;19.074;2023-10-08T11:03:56;100462.09;;;19.62;54.04
75794;BME280;64418;47.536;19.074;2023-10-08T11:06:23;100454.09;;;19.56;54.31
75794;BME280;64418;47.536;19.074;2023-10-08T11:08:50;100449.72;;;19.60;54.35
75794;BME280;64418;47.536;19.074;2023-10-08T11:11:19;100464.88;;;19.36;53.90
75794;BME280;64418;47.536;19.074;2023-10-08T11:13:51;100475.22;;;19.23;54.63
75794;BME280;64418;47.536;19.074;2023-10-08T11:16:23;100462.25;;;19.19;55.11
75794;BME280;64418;47.536;19.074;2023-10-08T11:18:50;100471.16;;;18.99;55.26
75794;BME280;64418;47.536;19.074;2023-10-08T11:21:18;100483.44;;;18.92;55.74
75794;BME280;64418;47.536;19.074;2023-10-08T11:23:45;100476.06;;;18.97;55.08
75794;BME280;64418;47.536;19.074;2023-10-08T11:26:14;100471.84;;;18.63;55.35
75794;BME280;64418;47.536;19.074;2023-10-08T11:28:40;100485.22;;;18.81;54.27
75794;BME280;64418;47.536;19.074;2023-10-08T11:31:06;100481.88;;;18.52;53.18
75794;BME280;64418;47.536;19.074;2023-10-08T11:33:34;100492.94;;;18.41;53.17
75794;BME280;64418;47.536;19.074;2023-10-08T11:36:02;100504.31;;;18.27;53.15
75794;BME280;64418;47.536;19.074;2023-10-08T11:38:39;100505.19;;;17.95;53.40
75794;BME280;64418;47.536;19.074;2023-10-08T11:41:12;100501.03;;;17.92;53.57
75794;BME280;64418;47.536;19.074;2023-10-08T11:43:38;100489.75;;;17.72;54.18
75794;BME280;64418;47.536;19.074;2023-10-08T11:46:04;100509.34;;;17.64;54.52
75794;BME280;64418;47.536;19.074;2023-10-08T11:48:30;100518.00;;;17.56;54.82
75794;BME280;64418;47.536;19.074;2023-10-08T11:50:56;100523.12;;;17.52;55.13
75794;BME280;64418;47.536;19.074;2023-10-08T11:53:22;100513.31;;;17.40;55.61
75794;BME280;64418;47.536;19.074;2023-10-08T11:55:49;100518.06;;;17.44;55.62
75794;BME280;64418;47.536;19.074;2023-10-08T11:58:15;100536.88;;;17.24;56.57
75794;BME280;64418;47.536;19.074;2023-10-08T12:00:42;100534.72;;;17.43;56.23
75794;BME280;64418;47.536;19.074;2023-10-08T12:03:08;100542.78;;;17.32;56.00
75794;BME280;64418;47.536;19.074;2023-10-08T12:05:34;100536.88;;;17.24;56.21
75794;BME280;64418;47.536;19.074;2023-10-08T12:07:59;100539.75;;;17.17;56.48
75794;BME280;64418;47.536;19.074;2023-10-08T12:10:25;100574.19;;;17.13;56.61
75794;BME280;64418;47.536;19.074;2023-10-08T12:12:54;100569.28;;;17.15;56.46
75794;BME280;64418;47.536;19.074;2023-10-08T12:15:20;100569.47;;;16.97;55.98
75794;BME280;64418;47.536;19.074;2023-10-08T12:17:47;100574.94;;;16.97;56.12
75794;BME280;64418;47.536;19.074;2023-10-08T12:20:14;100574.12;;;16.97;55.74
75794;BME280;64418;47.536;19.074;2023-10-08T12:22:39;100591.38;;;16.97;55.69
75794;BME280;64418;47.536;19.074;2023-10-08T12:25:06;100594.13;;;16.85;55.19
75794;BME280;64418;47.536;19.074;2023-10-08T12:27:31;100592.00;;;16.88;54.98
75794;BME280;64418;47.536;19.074;2023-10-08T12:29:59;100619.59;;;16.86;54.93
75794;BME280;64418;47.536;19.074;2023-10-08T12:32:25;100599.00;;;16.95;53.25
75794;BME280;64418;47.536;19.074;2023-10-08T12:34:51;100613.47;;;17.07;52.91
75794;BME280;64418;47.536;19.074;2023-10-08T12:37:16;100599.13;;;16.89;52.70
75794;BME280;64418;47.536;19.074;2023-10-08T12:39:42;100589.50;;;16.86;53.19